Meishomaru — JD3044 — position and weather

sailwx.info

Track history (hours):
 
Tides and Currents Weather Stations Pressure Air Temp Water Temp Dewpoint Dewpoint Depression Visibility Wind Speed Wind Dir Waves Ship Positions

Meishomaru

Last reported at 2016-Jun-22 06:22 UTC. Time now 2016-Jun-27 11:30 UTC.
Position N 35°08' E 139°43'.

Length 68 m; draft 3.9 m.

Type: Tanker. MMSI: 431001216.

Date/timePositionNaut miles runAvg speedWind from/ knotsBaromVisibWave heightAir tempDewpointWater temp
2016-Jun-22 06:22N 35°08' E 139°43'810.6
2016-Jun-22 05:33N 35°17' E 139°45'10 9.9
2016-Jun-22 04:33N 35°26' E 139°46'1212.0
2016-Jun-22 03:33N 35°31' E 139°60'2 2.2
2016-Jun-22 02:33N 35°31' E 140°02'0 0.0
2016-Jun-22 01:33N 35°31' E 140°02'0 0.0
2016-Jun-22 00:33N 35°31' E 140°02'0 0.0
2016-Jun-21 23:32N 35°31' E 140°02'6 6.5
2016-Jun-21 22:33N 35°33' E 139°55'0 0.1
2016-Jun-21 21:31N 35°33' E 139°55'0 0.0
2016-Jun-21 20:31N 35°33' E 139°55'0 0.0
2016-Jun-21 19:28N 35°33' E 139°55'0 0.0
2016-Jun-21 18:28N 35°33' E 139°55'0 0.0
2016-Jun-21 17:31N 35°33' E 139°55'0 0.0
2016-Jun-21 16:31N 35°33' E 139°55'0 0.0
2016-Jun-21 15:31N 35°33' E 139°55'0 0.0
2016-Jun-21 14:31N 35°33' E 139°55'0 0.0
2016-Jun-21 13:31N 35°33' E 139°55'0 0.0
2016-Jun-21 12:31N 35°33' E 139°55'0 0.0
2016-Jun-21 11:25N 35°33' E 139°55'0 0.0
2016-Jun-21 10:31N 35°33' E 139°55'0 0.0
2016-Jun-21 09:31N 35°33' E 139°55'0 0.1
2016-Jun-21 08:28N 35°33' E 139°55'0 0.0
2016-Jun-21 07:31N 35°33' E 139°55'0 0.0
2016-Jun-21 04:31N 35°33' E 139°55'0 0.0
2016-Jun-21 03:31N 35°33' E 139°55'0 0.0
2016-Jun-21 02:31N 35°33' E 139°55'0 0.0
2016-Jun-21 01:31N 35°33' E 139°55'0 0.0
2016-Jun-21 00:28N 35°33' E 139°55'0 0.0
2016-Jun-20 23:31N 35°33' E 139°55'0 0.0
2016-Jun-20 22:31N 35°33' E 139°55'0 0.0
2016-Jun-20 21:25N 35°33' E 139°55'0 0.0
2016-Jun-20 20:31N 35°33' E 139°55'0 0.0
2016-Jun-20 19:28N 35°33' E 139°55'0 0.0
2016-Jun-20 18:31N 35°33' E 139°55'0 0.0
2016-Jun-20 17:31N 35°33' E 139°55'0 0.0
2016-Jun-20 16:28N 35°33' E 139°55'0 0.0
2016-Jun-20 15:31N 35°33' E 139°55'0 0.0
2016-Jun-20 14:31N 35°33' E 139°55'0 0.0
2016-Jun-20 13:31N 35°33' E 139°55'0 0.0
2016-Jun-20 12:31N 35°33' E 139°55'0 0.1
2016-Jun-20 11:31N 35°33' E 139°55'4 4.1
2016-Jun-20 10:33N 35°29' E 139°56'4 3.9
2016-Jun-20 09:28N 35°29' E 140°01'0 0.0
2016-Jun-20 08:28N 35°29' E 140°01'0 0.0
2016-Jun-20 07:25N 35°29' E 140°01'0 0.0
2016-Jun-20 06:31N 35°29' E 140°01'2 2.3
2016-Jun-20 05:33N 35°30' E 139°59'1111.4
2016-Jun-20 04:33N 35°30' E 139°45'0 0.0
2016-Jun-20 03:30N 35°30' E 139°45'0 0.0
2016-Jun-20 02:33N 35°30' E 139°45'0 0.0
2016-Jun-20 01:33N 35°30' E 139°45'0 0.0
2016-Jun-20 00:33N 35°30' E 139°45'0 0.0
2016-Jun-19 23:33N 35°30' E 139°45'4 3.7
2016-Jun-19 22:33N 35°29' E 139°49'0 0.0
2016-Jun-19 21:30N 35°29' E 139°49'0 0.0
2016-Jun-19 20:33N 35°29' E 139°49'0 0.0
2016-Jun-19 19:33N 35°29' E 139°49'0 0.0
2016-Jun-19 18:33N 35°29' E 139°49'0 0.0
2016-Jun-19 17:33N 35°29' E 139°49'0 0.0
2016-Jun-19 16:33N 35°29' E 139°49'9 9.3
2016-Jun-19 15:34N 35°21' E 139°45'1212.0
2016-Jun-19 14:33N 35°09' E 139°46'  
Track history (hours):
 
Tides and Currents Weather Stations Pressure Air Temp Water Temp Dewpoint Dewpoint Depression Visibility Wind Speed Wind Dir Waves Ship Positions

Meishomaru

Last reported at 2016-Jun-22 06:22 UTC. Time now 2016-Jun-27 11:30 UTC.
Position N 35°08' E 139°43'.

Length 68 m; draft 3.9 m.

Type: Tanker. MMSI: 431001216.

Date/timePositionNaut miles runAvg speedWind from/ knotsBaromVisibWave heightAir tempDewpointWater temp
2016-Jun-22 06:22N 35°08' E 139°43'810.6
2016-Jun-22 05:33N 35°17' E 139°45'10 9.9
2016-Jun-22 04:33N 35°26' E 139°46'1212.0
2016-Jun-22 03:33N 35°31' E 139°60'2 2.2
2016-Jun-22 02:33N 35°31' E 140°02'0 0.0
2016-Jun-22 01:33N 35°31' E 140°02'0 0.0
2016-Jun-22 00:33N 35°31' E 140°02'0 0.0
2016-Jun-21 23:32N 35°31' E 140°02'6 6.5
2016-Jun-21 22:33N 35°33' E 139°55'0 0.1
2016-Jun-21 21:31N 35°33' E 139°55'0 0.0
2016-Jun-21 20:31N 35°33' E 139°55'0 0.0
2016-Jun-21 19:28N 35°33' E 139°55'0 0.0
2016-Jun-21 18:28N 35°33' E 139°55'0 0.0
2016-Jun-21 17:31N 35°33' E 139°55'0 0.0
2016-Jun-21 16:31N 35°33' E 139°55'0 0.0
2016-Jun-21 15:31N 35°33' E 139°55'0 0.0
2016-Jun-21 14:31N 35°33' E 139°55'0 0.0
2016-Jun-21 13:31N 35°33' E 139°55'0 0.0
2016-Jun-21 12:31N 35°33' E 139°55'0 0.0
2016-Jun-21 11:25N 35°33' E 139°55'0 0.0
2016-Jun-21 10:31N 35°33' E 139°55'0 0.0
2016-Jun-21 09:31N 35°33' E 139°55'0 0.1
2016-Jun-21 08:28N 35°33' E 139°55'0 0.0
2016-Jun-21 07:31N 35°33' E 139°55'0 0.0
2016-Jun-21 04:31N 35°33' E 139°55'0 0.0
2016-Jun-21 03:31N 35°33' E 139°55'0 0.0
2016-Jun-21 02:31N 35°33' E 139°55'0 0.0
2016-Jun-21 01:31N 35°33' E 139°55'0 0.0
2016-Jun-21 00:28N 35°33' E 139°55'0 0.0
2016-Jun-20 23:31N 35°33' E 139°55'0 0.0
2016-Jun-20 22:31N 35°33' E 139°55'0 0.0
2016-Jun-20 21:25N 35°33' E 139°55'0 0.0
2016-Jun-20 20:31N 35°33' E 139°55'0 0.0
2016-Jun-20 19:28N 35°33' E 139°55'0 0.0
2016-Jun-20 18:31N 35°33' E 139°55'0 0.0
2016-Jun-20 17:31N 35°33' E 139°55'0 0.0
2016-Jun-20 16:28N 35°33' E 139°55'0 0.0
2016-Jun-20 15:31N 35°33' E 139°55'0 0.0
2016-Jun-20 14:31N 35°33' E 139°55'0 0.0
2016-Jun-20 13:31N 35°33' E 139°55'0 0.0
2016-Jun-20 12:31N 35°33' E 139°55'0 0.1
2016-Jun-20 11:31N 35°33' E 139°55'4 4.1
2016-Jun-20 10:33N 35°29' E 139°56'4 3.9
2016-Jun-20 09:28N 35°29' E 140°01'0 0.0
2016-Jun-20 08:28N 35°29' E 140°01'0 0.0
2016-Jun-20 07:25N 35°29' E 140°01'0 0.0
2016-Jun-20 06:31N 35°29' E 140°01'2 2.3
2016-Jun-20 05:33N 35°30' E 139°59'1111.4
2016-Jun-20 04:33N 35°30' E 139°45'0 0.0
2016-Jun-20 03:30N 35°30' E 139°45'0 0.0
2016-Jun-20 02:33N 35°30' E 139°45'0 0.0
2016-Jun-20 01:33N 35°30' E 139°45'0 0.0
2016-Jun-20 00:33N 35°30' E 139°45'0 0.0
2016-Jun-19 23:33N 35°30' E 139°45'4 3.7
2016-Jun-19 22:33N 35°29' E 139°49'0 0.0
2016-Jun-19 21:30N 35°29' E 139°49'0 0.0
2016-Jun-19 20:33N 35°29' E 139°49'0 0.0
2016-Jun-19 19:33N 35°29' E 139°49'0 0.0
2016-Jun-19 18:33N 35°29' E 139°49'0 0.0
2016-Jun-19 17:33N 35°29' E 139°49'0 0.0
2016-Jun-19 16:33N 35°29' E 139°49'9 9.3
2016-Jun-19 15:34N 35°21' E 139°45'1212.0
2016-Jun-19 14:33N 35°09' E 139°46'  

Dump ship's entire track history